Airport View

Enter AWOS ICAO identifier for current METAR.

ex. KFNL

KMWC 170955Z AUTO 18005KT 10SM CLR M01/M03 A3013 RMK AO2

17 Nov 2019 10:14

Phone: 414-461-2954

Other Area AWOS: KUES - KMKE - KETB - KRAC

TAF AMD KUES 170903Z 1709/1806 17006KT P6SM BKN150 FM171900 19008KT P6SM VCSH OVC060 FM172100 19008KT 5SM -RASN BR OVC018 FM172300 20008KT 4SM -RA BR OVC009 FM180100 22005KT 5SM -DZ BR OVC005 FM180400 25004KT P6SM OVC008